createdAt,value
2019-01-21T00:02:07.004Z,-5.28
2019-01-21T00:04:54.247Z,-5.30
2019-01-21T00:07:41.437Z,-5.31
2019-01-21T00:10:29.324Z,-5.31
2019-01-21T00:13:17.316Z,-5.34
2019-01-21T00:16:04.563Z,-5.38
2019-01-21T00:18:52.037Z,-5.41
2019-01-21T00:21:40.355Z,-5.45
2019-01-21T00:24:29.541Z,-5.51
2019-01-21T00:27:17.072Z,-5.56
2019-01-21T00:30:05.511Z,-5.58
2019-01-21T00:39:05.339Z,-5.71
2019-01-21T00:41:53.030Z,-5.10
2019-01-21T00:50:52.594Z,-5.00
2019-01-21T00:53:39.550Z,-5.51
2019-01-21T00:56:42.527Z,-5.61
2019-01-21T00:59:29.750Z,-5.69
2019-01-21T01:02:24.851Z,-5.74
2019-01-21T01:05:11.885Z,-5.79
2019-01-21T01:07:59.447Z,-5.14
2019-01-21T01:10:46.911Z,-5.59
2019-01-21T01:13:34.396Z,-4.98
2019-01-21T01:19:28.064Z,-5.64
2019-01-21T01:34:41.618Z,-5.98
2019-01-21T01:43:41.913Z,-6.10
2019-01-21T01:55:49.051Z,-6.18
2019-01-21T01:58:36.580Z,-6.19
2019-01-21T02:01:23.854Z,-6.19
2019-01-21T02:07:18.401Z,-5.51
2019-01-21T02:10:06.839Z,-5.96
2019-01-21T02:12:55.601Z,-6.08
2019-01-21T02:15:42.870Z,-6.15
2019-01-21T02:18:30.086Z,-6.20
2019-01-21T02:24:39.458Z,-6.07
2019-01-21T02:31:03.735Z,-5.46
2019-01-21T02:38:01.591Z,-5.03
2019-01-21T02:57:08.942Z,-6.05
2019-01-21T03:00:09.921Z,-5.40
2019-01-21T03:22:22.376Z,-6.42
2019-01-21T03:35:17.750Z,-6.34
2019-01-21T03:47:55.311Z,-6.56
2019-01-21T04:00:24.342Z,-6.67
2019-01-21T04:03:35.430Z,-6.02
2019-01-21T04:16:40.743Z,-6.37
2019-01-21T04:39:10.364Z,-6.53
2019-01-21T04:42:25.177Z,-6.60
2019-01-21T04:45:17.922Z,-6.65
2019-01-21T04:57:44.589Z,-6.80
2019-01-21T05:03:55.737Z,-6.87
2019-01-21T05:16:34.622Z,-6.95
2019-01-21T05:19:38.817Z,-6.97
2019-01-21T05:35:39.761Z,-6.62
2019-01-21T05:58:31.771Z,-6.35
2019-01-21T06:04:51.265Z,-6.21
2019-01-21T06:08:03.994Z,-6.15
2019-01-21T06:11:07.597Z,-6.08
2019-01-21T06:24:06.376Z,-5.89
2019-01-21T06:27:22.712Z,-5.85
2019-01-21T06:30:35.430Z,-5.03
2019-01-21T06:33:44.567Z,-5.48
2019-01-21T06:36:36.373Z,-5.57
2019-01-21T06:39:27.829Z,-5.59
2019-01-21T06:42:35.823Z,-5.59
2019-01-21T06:45:34.419Z,-5.64
2019-01-21T06:52:18.378Z,-5.79
2019-01-21T07:02:08.224Z,-5.77
2019-01-21T07:05:37.638Z,-5.74
2019-01-21T07:08:44.315Z,-5.70
2019-01-21T07:11:41.006Z,-5.67
2019-01-21T07:14:37.633Z,-5.65
2019-01-21T07:17:33.956Z,-5.63
2019-01-21T07:20:39.735Z,-5.60
2019-01-21T07:23:53.105Z,-5.63
2019-01-21T07:30:39.613Z,-5.65
2019-01-21T07:33:37.547Z,-4.75
2019-01-21T07:36:35.470Z,-5.24
2019-01-21T07:39:33.899Z,-5.33
2019-01-21T07:42:23.307Z,-5.33
2019-01-21T07:45:13.602Z,-5.30
2019-01-21T07:48:19.795Z,-5.24
2019-01-21T07:51:16.027Z,-5.19
2019-01-21T07:57:34.855Z,-5.12
2019-01-21T08:04:30.535Z,-5.09
2019-01-21T08:07:23.622Z,-4.09
2019-01-21T08:10:34.416Z,-4.64
2019-01-21T08:13:29.615Z,-4.75
2019-01-21T08:29:59.500Z,-4.67
2019-01-21T08:36:03.308Z,-4.59
2019-01-21T08:39:01.834Z,-4.53
2019-01-21T08:52:07.577Z,-4.09
2019-01-21T08:55:15.516Z,-4.02
2019-01-21T08:58:40.248Z,-3.01
2019-01-21T09:01:52.245Z,-3.58
2019-01-21T09:04:58.942Z,-3.60
2019-01-21T09:07:59.427Z,-3.55
2019-01-21T09:14:27.347Z,-3.40
2019-01-21T09:17:47.851Z,-2.36
2019-01-21T09:21:13.699Z,-2.98
2019-01-21T09:24:31.905Z,-3.06
2019-01-21T09:27:26.606Z,-3.07
2019-01-21T09:30:28.387Z,-3.06
2019-01-21T09:33:47.739Z,-2.03
2019-01-21T09:36:50.472Z,-1.61
2019-01-21T09:43:27.654Z,-1.38
2019-01-21T09:52:55.885Z,-2.30
2019-01-21T09:55:44.957Z,-2.29
2019-01-21T09:58:31.579Z,-2.26
2019-01-21T10:01:19.081Z,-2.21
2019-01-21T10:04:06.637Z,-2.16
2019-01-21T10:07:31.081Z,-2.14
2019-01-21T10:10:47.286Z,-2.11
2019-01-21T10:13:59.988Z,-0.94
2019-01-21T10:16:55.084Z,-1.74
2019-01-21T10:20:20.314Z,-1.81
2019-01-21T10:23:39.081Z,-1.85
2019-01-21T10:37:12.305Z,-1.67
2019-01-21T10:40:07.928Z,-0.46
2019-01-21T10:43:21.798Z,-1.19
2019-01-21T10:46:10.014Z,-0.08
2019-01-21T10:49:10.477Z,-0.89
2019-01-21T10:52:15.010Z,0.11
2019-01-21T10:55:07.987Z,-0.74
2019-01-21T10:58:04.467Z,-0.87
2019-01-21T11:01:18.685Z,-0.94
2019-01-21T11:04:13.969Z,-0.97
2019-01-21T11:07:08.806Z,-0.91
2019-01-21T11:27:10.369Z,-0.20
2019-01-21T11:30:03.267Z,0.87
2019-01-21T11:33:09.228Z,0.05
2019-01-21T11:36:12.303Z,-0.09
2019-01-21T11:39:16.845Z,-0.12
2019-01-21T11:42:32.282Z,-0.11
2019-01-21T11:45:29.407Z,1.16
2019-01-21T11:48:48.867Z,1.46
2019-01-21T11:58:45.411Z,0.28
2019-01-21T12:02:03.113Z,0.19
2019-01-21T12:08:25.380Z,0.09
2019-01-21T12:11:33.561Z,0.16
2019-01-21T12:14:21.435Z,0.24
2019-01-21T12:17:28.393Z,1.43
2019-01-21T12:20:19.576Z,0.56
2019-01-21T12:23:20.480Z,0.47
2019-01-21T12:26:12.364Z,0.46
2019-01-21T12:29:12.187Z,1.64
2019-01-21T12:32:00.479Z,0.79
2019-01-21T12:38:27.418Z,0.67
2019-01-21T12:41:21.676Z,0.69
2019-01-21T12:44:19.207Z,0.67
2019-01-21T12:51:05.402Z,0.67
2019-01-21T12:54:06.666Z,0.76
2019-01-21T12:57:06.167Z,0.81
2019-01-21T12:59:53.360Z,0.85
2019-01-21T13:02:48.528Z,0.91
2019-01-21T13:12:09.970Z,1.00
2019-01-21T13:15:06.726Z,0.98
2019-01-21T13:18:12.066Z,0.88
2019-01-21T13:24:25.059Z,0.81
2019-01-21T13:27:46.555Z,0.81
2019-01-21T13:30:40.067Z,0.66
2019-01-21T13:33:36.974Z,0.55
2019-01-21T16:43:28.662Z,-3.25
2019-01-21T16:46:32.698Z,-3.32
2019-01-21T16:49:20.420Z,-3.40
2019-01-21T16:52:08.288Z,-3.44
2019-01-21T16:54:56.340Z,-3.48
2019-01-21T16:57:44.404Z,-3.52
2019-01-21T17:00:32.464Z,-3.56
2019-01-21T17:03:22.893Z,-3.59
2019-01-21T17:06:10.697Z,-3.63
2019-01-21T17:09:00.531Z,-3.67
2019-01-21T17:11:51.841Z,-3.71
2019-01-21T17:14:42.985Z,-3.74
2019-01-21T17:17:39.993Z,-3.78
2019-01-21T17:23:51.094Z,-3.85
2019-01-21T17:42:14.144Z,-4.04
2019-01-21T17:45:02.721Z,-4.07
2019-01-21T17:47:51.240Z,-3.44
2019-01-21T17:50:48.732Z,-3.87
2019-01-21T17:53:37.904Z,-3.97
2019-01-21T17:56:25.555Z,-3.33
2019-01-21T18:02:30.060Z,-3.96
2019-01-21T18:05:23.329Z,-3.30
2019-01-21T18:08:11.798Z,-3.82
2019-01-21T18:11:01.212Z,-3.94
2019-01-21T18:13:49.392Z,-3.99
2019-01-21T18:16:37.035Z,-4.06
2019-01-21T19:19:15.938Z,-4.66
2019-01-21T19:22:06.258Z,-4.65
2019-01-21T20:05:21.599Z,-4.38
2019-01-21T20:17:37.318Z,-3.77
2019-01-21T20:20:32.990Z,-4.21
2019-01-21T20:23:25.846Z,-4.30
2019-01-21T20:26:13.836Z,-3.65
2019-01-21T20:29:04.070Z,-4.13
2019-01-21T21:10:18.144Z,-4.44
2019-01-21T21:13:09.031Z,-3.81
2019-01-21T21:15:58.525Z,-4.29
2019-01-21T22:34:41.158Z,-5.16
2019-01-21T22:37:31.767Z,-4.51
2019-01-21T22:40:21.137Z,-4.23
2019-01-21T22:43:08.879Z,-4.75
2019-01-21T22:52:32.630Z,-4.99
2019-01-21T22:55:30.722Z,-5.00
2019-01-21T23:04:34.311Z,-5.05
